sensor_id;sensor_type;location;lat;lon;timestamp;temperature;humidity
3792;DHT22;1911;53.768;11.474;2022-11-15T00:01:40;5.00;99.90
3792;DHT22;1911;53.768;11.474;2022-11-15T00:04:06;5.00;99.90
3792;DHT22;1911;53.768;11.474;2022-11-15T00:06:32;5.00;99.90
3792;DHT22;1911;53.768;11.474;2022-11-15T00:08:58;5.00;99.90
3792;DHT22;1911;53.768;11.474;2022-11-15T00:11:24;5.10;99.90
3792;DHT22;1911;53.768;11.474;2022-11-15T00:13:50;5.10;99.90
3792;DHT22;1911;53.768;11.474;2022-11-15T00:16:17;5.00;99.90
3792;DHT22;1911;53.768;11.474;2022-11-15T00:18:42;5.10;99.90
3792;DHT22;1911;53.768;11.474;2022-11-15T00:21:11;5.10;99.90
3792;DHT22;1911;53.768;11.474;2022-11-15T00:23:37;5.00;99.90
3792;DHT22;1911;53.768;11.474;2022-11-15T00:26:03;5.10;99.90
3792;DHT22;1911;53.768;11.474;2022-11-15T00:28:29;5.10;99.90
3792;DHT22;1911;53.768;11.474;2022-11-15T00:31:03;5.10;99.90
3792;DHT22;1911;53.768;11.474;2022-11-15T00:33:29;5.10;99.90
3792;DHT22;1911;53.768;11.474;2022-11-15T00:36:04;5.10;99.90
3792;DHT22;1911;53.768;11.474;2022-11-15T00:38:31;5.00;99.90
3792;DHT22;1911;53.768;11.474;2022-11-15T00:40:58;5.00;99.90
3792;DHT22;1911;53.768;11.474;2022-11-15T00:43:23;5.00;99.90
3792;DHT22;1911;53.768;11.474;2022-11-15T00:45:49;5.00;99.90
3792;DHT22;1911;53.768;11.474;2022-11-15T00:48:14;5.00;99.90
3792;DHT22;1911;53.768;11.474;2022-11-15T00:50:40;4.90;99.90
3792;DHT22;1911;53.768;11.474;2022-11-15T00:53:06;5.00;99.90
3792;DHT22;1911;53.768;11.474;2022-11-15T00:55:32;5.00;99.90
3792;DHT22;1911;53.768;11.474;2022-11-15T00:57:57;5.10;99.90
3792;DHT22;1911;53.768;11.474;2022-11-15T01:00:23;5.10;99.90
3792;DHT22;1911;53.768;11.474;2022-11-15T01:02:48;5.10;99.90
3792;DHT22;1911;53.768;11.474;2022-11-15T01:05:14;5.10;99.90
3792;DHT22;1911;53.768;11.474;2022-11-15T01:07:40;5.10;99.90
3792;DHT22;1911;53.768;11.474;2022-11-15T01:10:06;5.10;99.90
3792;DHT22;1911;53.768;11.474;2022-11-15T01:12:31;5.10;99.90
3792;DHT22;1911;53.768;11.474;2022-11-15T01:14:57;5.10;99.90
3792;DHT22;1911;53.768;11.474;2022-11-15T01:17:23;5.10;99.90
3792;DHT22;1911;53.768;11.474;2022-11-15T01:19:48;5.10;99.90
3792;DHT22;1911;53.768;11.474;2022-11-15T01:22:14;5.20;99.90
3792;DHT22;1911;53.768;11.474;2022-11-15T01:24:40;5.10;99.90
3792;DHT22;1911;53.768;11.474;2022-11-15T01:27:06;5.10;99.90
3792;DHT22;1911;53.768;11.474;2022-11-15T01:29:31;5.10;99.90
3792;DHT22;1911;53.768;11.474;2022-11-15T01:31:57;5.10;99.90
3792;DHT22;1911;53.768;11.474;2022-11-15T01:34:23;5.10;99.90
3792;DHT22;1911;53.768;11.474;2022-11-15T01:36:48;5.10;99.90
3792;DHT22;1911;53.768;11.474;2022-11-15T01:39:14;5.10;99.90
3792;DHT22;1911;53.768;11.474;2022-11-15T01:41:40;5.10;99.90
3792;DHT22;1911;53.768;11.474;2022-11-15T01:46:58;5.10;99.90
3792;DHT22;1911;53.768;11.474;2022-11-15T01:49:25;5.10;99.90
3792;DHT22;1911;53.768;11.474;2022-11-15T01:51:52;5.10;99.90
3792;DHT22;1911;53.768;11.474;2022-11-15T01:54:20;5.10;99.90
3792;DHT22;1911;53.768;11.474;2022-11-15T01:56:53;5.00;99.90
3792;DHT22;1911;53.768;11.474;2022-11-15T01:59:20;5.00;99.90
3792;DHT22;1911;53.768;11.474;2022-11-15T02:01:46;4.90;99.90
3792;DHT22;1911;53.768;11.474;2022-11-15T02:04:17;4.80;99.90
3792;DHT22;1911;53.768;11.474;2022-11-15T02:06:44;4.70;99.90
3792;DHT22;1911;53.768;11.474;2022-11-15T02:09:12;4.60;99.90
3792;DHT22;1911;53.768;11.474;2022-11-15T02:11:38;4.60;99.90
3792;DHT22;1911;53.768;11.474;2022-11-15T02:14:05;4.60;99.90
3792;DHT22;1911;53.768;11.474;2022-11-15T02:16:35;4.60;99.90
3792;DHT22;1911;53.768;11.474;2022-11-15T02:22:20;4.50;99.90
3792;DHT22;1911;53.768;11.474;2022-11-15T02:33:01;4.60;99.90
3792;DHT22;1911;53.768;11.474;2022-11-15T02:35:41;4.60;99.90
3792;DHT22;1911;53.768;11.474;2022-11-15T02:38:36;4.60;99.90
3792;DHT22;1911;53.768;11.474;2022-11-15T02:41:10;4.50;99.90
3792;DHT22;1911;53.768;11.474;2022-11-15T02:43:45;4.50;99.90
3792;DHT22;1911;53.768;11.474;2022-11-15T02:46:36;4.40;99.90
3792;DHT22;1911;53.768;11.474;2022-11-15T02:49:24;4.40;99.90
3792;DHT22;1911;53.768;11.474;2022-11-15T02:51:51;4.30;99.90
3792;DHT22;1911;53.768;11.474;2022-11-15T02:54:23;4.30;99.90
3792;DHT22;1911;53.768;11.474;2022-11-15T02:56:50;4.30;99.90
3792;DHT22;1911;53.768;11.474;2022-11-15T02:59:24;4.30;99.90
3792;DHT22;1911;53.768;11.474;2022-11-15T03:04:57;4.40;99.90
3792;DHT22;1911;53.768;11.474;2022-11-15T03:10:32;4.40;99.90
3792;DHT22;1911;53.768;11.474;2022-11-15T03:15:47;4.50;99.90
3792;DHT22;1911;53.768;11.474;2022-11-15T03:18:30;4.50;99.90
3792;DHT22;1911;53.768;11.474;2022-11-15T03:21:03;4.50;99.90
3792;DHT22;1911;53.768;11.474;2022-11-15T03:23:31;4.50;99.90
3792;DHT22;1911;53.768;11.474;2022-11-15T03:25:58;4.50;99.90
3792;DHT22;1911;53.768;11.474;2022-11-15T03:28:43;4.60;99.90
3792;DHT22;1911;53.768;11.474;2022-11-15T03:31:12;4.70;99.90
3792;DHT22;1911;53.768;11.474;2022-11-15T03:33:58;4.70;99.90
3792;DHT22;1911;53.768;11.474;2022-11-15T03:36:25;4.80;99.90
3792;DHT22;1911;53.768;11.474;2022-11-15T03:38:55;4.80;99.90
3792;DHT22;1911;53.768;11.474;2022-11-15T03:47:09;4.90;99.90
3792;DHT22;1911;53.768;11.474;2022-11-15T03:49:42;4.90;99.90
3792;DHT22;1911;53.768;11.474;2022-11-15T03:52:10;4.90;99.90
3792;DHT22;1911;53.768;11.474;2022-11-15T03:54:36;5.00;99.90
3792;DHT22;1911;53.768;11.474;2022-11-15T03:57:01;5.00;99.90
3792;DHT22;1911;53.768;11.474;2022-11-15T03:59:27;5.00;99.90
3792;DHT22;1911;53.768;11.474;2022-11-15T04:01:53;5.00;99.90
3792;DHT22;1911;53.768;11.474;2022-11-15T04:04:18;5.00;99.90
3792;DHT22;1911;53.768;11.474;2022-11-15T04:06:44;5.00;99.90
3792;DHT22;1911;53.768;11.474;2022-11-15T04:09:09;4.90;99.90
3792;DHT22;1911;53.768;11.474;2022-11-15T04:11:35;4.90;99.90
3792;DHT22;1911;53.768;11.474;2022-11-15T04:14:01;4.90;99.90
3792;DHT22;1911;53.768;11.474;2022-11-15T04:16:26;4.90;99.90
3792;DHT22;1911;53.768;11.474;2022-11-15T04:18:52;4.90;99.90
3792;DHT22;1911;53.768;11.474;2022-11-15T04:21:37;5.00;99.90
3792;DHT22;1911;53.768;11.474;2022-11-15T04:24:21;4.90;99.90
3792;DHT22;1911;53.768;11.474;2022-11-15T04:26:47;5.00;99.90
3792;DHT22;1911;53.768;11.474;2022-11-15T04:29:12;5.00;99.90
3792;DHT22;1911;53.768;11.474;2022-11-15T04:31:57;5.10;99.90
3792;DHT22;1911;53.768;11.474;2022-11-15T04:34:22;5.10;99.90
3792;DHT22;1911;53.768;11.474;2022-11-15T04:36:48;5.10;99.90
3792;DHT22;1911;53.768;11.474;2022-11-15T04:39:32;5.00;99.90
3792;DHT22;1911;53.768;11.474;2022-11-15T04:41:58;5.00;99.90
3792;DHT22;1911;53.768;11.474;2022-11-15T04:44:23;5.00;99.90
3792;DHT22;1911;53.768;11.474;2022-11-15T04:46:49;5.00;99.90
3792;DHT22;1911;53.768;11.474;2022-11-15T04:49:14;5.00;99.90
3792;DHT22;1911;53.768;11.474;2022-11-15T04:51:40;5.00;99.90
3792;DHT22;1911;53.768;11.474;2022-11-15T04:54:06;5.10;99.90
3792;DHT22;1911;53.768;11.474;2022-11-15T04:56:31;5.20;99.90
3792;DHT22;1911;53.768;11.474;2022-11-15T04:58:57;5.20;99.90
3792;DHT22;1911;53.768;11.474;2022-11-15T05:01:22;5.10;99.90
3792;DHT22;1911;53.768;11.474;2022-11-15T05:03:48;5.00;99.90
3792;DHT22;1911;53.768;11.474;2022-11-15T05:06:32;5.00;99.90
3792;DHT22;1911;53.768;11.474;2022-11-15T05:08:58;4.90;99.90
3792;DHT22;1911;53.768;11.474;2022-11-15T05:11:23;4.80;99.90
3792;DHT22;1911;53.768;11.474;2022-11-15T05:13:49;4.70;99.90
3792;DHT22;1911;53.768;11.474;2022-11-15T05:16:15;4.70;99.90
3792;DHT22;1911;53.768;11.474;2022-11-15T05:18:41;4.70;99.90
3792;DHT22;1911;53.768;11.474;2022-11-15T05:21:12;4.60;99.90
3792;DHT22;1911;53.768;11.474;2022-11-15T05:23:38;4.60;99.90
3792;DHT22;1911;53.768;11.474;2022-11-15T05:26:05;4.60;99.90
3792;DHT22;1911;53.768;11.474;2022-11-15T05:28:31;4.60;99.90
3792;DHT22;1911;53.768;11.474;2022-11-15T05:31:04;4.60;99.90
3792;DHT22;1911;53.768;11.474;2022-11-15T05:33:31;4.50;99.90
3792;DHT22;1911;53.768;11.474;2022-11-15T05:36:36;4.50;99.90
3792;DHT22;1911;53.768;11.474;2022-11-15T05:39:06;4.60;99.90
3792;DHT22;1911;53.768;11.474;2022-11-15T05:41:37;4.80;99.90
3792;DHT22;1911;53.768;11.474;2022-11-15T05:44:07;5.00;99.90
3792;DHT22;1911;53.768;11.474;2022-11-15T05:46:35;5.20;99.90
3792;DHT22;1911;53.768;11.474;2022-11-15T05:49:02;5.30;99.90
3792;DHT22;1911;53.768;11.474;2022-11-15T05:51:30;5.40;99.90
3792;DHT22;1911;53.768;11.474;2022-11-15T05:53:56;5.50;99.90
3792;DHT22;1911;53.768;11.474;2022-11-15T05:56:24;5.60;99.90
3792;DHT22;1911;53.768;11.474;2022-11-15T05:58:50;5.60;99.90
3792;DHT22;1911;53.768;11.474;2022-11-15T06:01:16;5.70;99.90
3792;DHT22;1911;53.768;11.474;2022-11-15T06:03:42;5.70;99.90
3792;DHT22;1911;53.768;11.474;2022-11-15T06:06:07;5.60;99.90
3792;DHT22;1911;53.768;11.474;2022-11-15T06:08:33;5.60;99.90
3792;DHT22;1911;53.768;11.474;2022-11-15T06:11:04;5.60;99.90
3792;DHT22;1911;53.768;11.474;2022-11-15T06:13:29;5.60;99.90
3792;DHT22;1911;53.768;11.474;2022-11-15T06:15:55;5.60;99.90
3792;DHT22;1911;53.768;11.474;2022-11-15T06:18:22;5.60;99.90
3792;DHT22;1911;53.768;11.474;2022-11-15T06:20:47;5.50;99.90
3792;DHT22;1911;53.768;11.474;2022-11-15T06:23:13;5.60;99.90
3792;DHT22;1911;53.768;11.474;2022-11-15T06:25:38;5.50;99.90
3792;DHT22;1911;53.768;11.474;2022-11-15T06:28:04;5.50;99.90
3792;DHT22;1911;53.768;11.474;2022-11-15T06:30:30;5.60;99.90
3792;DHT22;1911;53.768;11.474;2022-11-15T06:33:03;5.60;99.90
3792;DHT22;1911;53.768;11.474;2022-11-15T06:35:30;5.70;99.90
3792;DHT22;1911;53.768;11.474;2022-11-15T06:37:59;5.60;99.90
3792;DHT22;1911;53.768;11.474;2022-11-15T06:40:26;5.70;99.90
3792;DHT22;1911;53.768;11.474;2022-11-15T06:43:00;5.70;99.90
3792;DHT22;1911;53.768;11.474;2022-11-15T06:45:26;5.80;99.90
3792;DHT22;1911;53.768;11.474;2022-11-15T06:47:51;5.80;99.90
3792;DHT22;1911;53.768;11.474;2022-11-15T06:50:17;5.80;99.90
3792;DHT22;1911;53.768;11.474;2022-11-15T06:52:43;5.90;99.90
3792;DHT22;1911;53.768;11.474;2022-11-15T06:55:08;5.80;99.90
3792;DHT22;1911;53.768;11.474;2022-11-15T06:57:35;5.90;99.90
3792;DHT22;1911;53.768;11.474;2022-11-15T07:00:01;5.90;99.90
3792;DHT22;1911;53.768;11.474;2022-11-15T07:02:27;5.90;99.90
3792;DHT22;1911;53.768;11.474;2022-11-15T07:04:53;5.90;99.90
3792;DHT22;1911;53.768;11.474;2022-11-15T07:07:18;6.00;99.90
3792;DHT22;1911;53.768;11.474;2022-11-15T07:09:44;6.00;99.90
3792;DHT22;1911;53.768;11.474;2022-11-15T07:12:10;6.00;99.90
3792;DHT22;1911;53.768;11.474;2022-11-15T07:14:35;6.00;99.90
3792;DHT22;1911;53.768;11.474;2022-11-15T07:17:03;5.90;99.90
3792;DHT22;1911;53.768;11.474;2022-11-15T07:19:30;5.90;99.90
3792;DHT22;1911;53.768;11.474;2022-11-15T07:21:56;5.90;99.90
3792;DHT22;1911;53.768;11.474;2022-11-15T07:24:21;6.00;99.90
3792;DHT22;1911;53.768;11.474;2022-11-15T07:26:47;6.00;99.90
3792;DHT22;1911;53.768;11.474;2022-11-15T07:29:12;6.00;99.90
3792;DHT22;1911;53.768;11.474;2022-11-15T07:31:38;6.00;99.90
3792;DHT22;1911;53.768;11.474;2022-11-15T07:34:04;6.10;99.90
3792;DHT22;1911;53.768;11.474;2022-11-15T07:36:29;6.10;99.90
3792;DHT22;1911;53.768;11.474;2022-11-15T07:38:55;6.20;99.90
3792;DHT22;1911;53.768;11.474;2022-11-15T07:41:21;6.20;99.90
3792;DHT22;1911;53.768;11.474;2022-11-15T07:43:46;6.30;99.90
3792;DHT22;1911;53.768;11.474;2022-11-15T07:46:12;6.30;99.90
3792;DHT22;1911;53.768;11.474;2022-11-15T07:48:38;6.30;99.90
3792;DHT22;1911;53.768;11.474;2022-11-15T07:51:06;6.30;99.90
3792;DHT22;1911;53.768;11.474;2022-11-15T07:53:31;6.40;99.90
3792;DHT22;1911;53.768;11.474;2022-11-15T07:55:57;6.40;99.90
3792;DHT22;1911;53.768;11.474;2022-11-15T07:58:22;6.50;99.90
3792;DHT22;1911;53.768;11.474;2022-11-15T08:00:48;6.50;99.90
3792;DHT22;1911;53.768;11.474;2022-11-15T08:03:16;6.50;99.90
3792;DHT22;1911;53.768;11.474;2022-11-15T08:05:43;6.50;99.90
3792;DHT22;1911;53.768;11.474;2022-11-15T08:08:10;6.60;99.90
3792;DHT22;1911;53.768;11.474;2022-11-15T08:10:36;6.60;99.90
3792;DHT22;1911;53.768;11.474;2022-11-15T08:13:08;6.70;99.90
3792;DHT22;1911;53.768;11.474;2022-11-15T08:15:34;6.70;99.90
3792;DHT22;1911;53.768;11.474;2022-11-15T08:18:03;6.80;99.90
3792;DHT22;1911;53.768;11.474;2022-11-15T08:20:29;6.80;99.90
3792;DHT22;1911;53.768;11.474;2022-11-15T08:22:56;6.90;99.90
3792;DHT22;1911;53.768;11.474;2022-11-15T08:25:23;6.90;99.90
3792;DHT22;1911;53.768;11.474;2022-11-15T08:27:52;7.00;99.90
3792;DHT22;1911;53.768;11.474;2022-11-15T08:30:17;7.00;99.90
3792;DHT22;1911;53.768;11.474;2022-11-15T08:32:43;7.10;99.90
3792;DHT22;1911;53.768;11.474;2022-11-15T08:35:09;7.10;99.90
3792;DHT22;1911;53.768;11.474;2022-11-15T08:37:35;7.10;99.90
3792;DHT22;1911;53.768;11.474;2022-11-15T08:40:01;7.10;99.90
3792;DHT22;1911;53.768;11.474;2022-11-15T08:42:26;7.20;99.90
3792;DHT22;1911;53.768;11.474;2022-11-15T08:44:52;7.20;99.90
3792;DHT22;1911;53.768;11.474;2022-11-15T08:47:18;7.20;99.90
3792;DHT22;1911;53.768;11.474;2022-11-15T08:49:43;7.30;99.90
3792;DHT22;1911;53.768;11.474;2022-11-15T08:52:09;7.40;99.90
3792;DHT22;1911;53.768;11.474;2022-11-15T08:54:34;7.40;99.90
3792;DHT22;1911;53.768;11.474;2022-11-15T08:57:00;7.50;99.90
3792;DHT22;1911;53.768;11.474;2022-11-15T08:59:26;7.60;99.90
3792;DHT22;1911;53.768;11.474;2022-11-15T09:01:51;7.70;99.90
3792;DHT22;1911;53.768;11.474;2022-11-15T09:04:17;7.80;99.90
3792;DHT22;1911;53.768;11.474;2022-11-15T09:06:42;7.80;99.90
3792;DHT22;1911;53.768;11.474;2022-11-15T09:09:08;7.90;99.90
3792;DHT22;1911;53.768;11.474;2022-11-15T09:11:34;7.90;99.90
3792;DHT22;1911;53.768;11.474;2022-11-15T09:13:59;8.00;99.90
3792;DHT22;1911;53.768;11.474;2022-11-15T09:16:25;8.00;99.90
3792;DHT22;1911;53.768;11.474;2022-11-15T09:18:50;8.10;99.90
3792;DHT22;1911;53.768;11.474;2022-11-15T09:21:16;8.20;99.90
3792;DHT22;1911;53.768;11.474;2022-11-15T09:23:41;8.20;99.90
3792;DHT22;1911;53.768;11.474;2022-11-15T09:26:08;8.30;99.90
3792;DHT22;1911;53.768;11.474;2022-11-15T09:28:34;8.30;99.90
3792;DHT22;1911;53.768;11.474;2022-11-15T09:31:03;8.40;99.90
3792;DHT22;1911;53.768;11.474;2022-11-15T09:33:30;8.30;99.90
3792;DHT22;1911;53.768;11.474;2022-11-15T09:36:07;8.50;99.90
3792;DHT22;1911;53.768;11.474;2022-11-15T09:38:33;8.70;99.90
3792;DHT22;1911;53.768;11.474;2022-11-15T09:44:05;8.80;99.90
3792;DHT22;1911;53.768;11.474;2022-11-15T09:46:57;8.90;99.90
3792;DHT22;1911;53.768;11.474;2022-11-15T09:49:25;8.90;99.90
3792;DHT22;1911;53.768;11.474;2022-11-15T09:51:53;9.00;99.90
3792;DHT22;1911;53.768;11.474;2022-11-15T09:57:50;9.20;99.90
3792;DHT22;1911;53.768;11.474;2022-11-15T10:02:56;9.20;99.90
3792;DHT22;1911;53.768;11.474;2022-11-15T10:05:25;9.20;99.90
3792;DHT22;1911;53.768;11.474;2022-11-15T10:08:03;9.20;99.90
3792;DHT22;1911;53.768;11.474;2022-11-15T10:10:43;9.10;99.90
3792;DHT22;1911;53.768;11.474;2022-11-15T10:13:36;9.20;99.90
3792;DHT22;1911;53.768;11.474;2022-11-15T10:16:31;9.30;99.90
3792;DHT22;1911;53.768;11.474;2022-11-15T10:24:12;9.70;99.90
3792;DHT22;1911;53.768;11.474;2022-11-15T10:26:38;9.70;99.90
3792;DHT22;1911;53.768;11.474;2022-11-15T10:29:04;9.80;99.90
3792;DHT22;1911;53.768;11.474;2022-11-15T10:31:30;9.90;99.90
3792;DHT22;1911;53.768;11.474;2022-11-15T10:34:10;9.90;99.90
3792;DHT22;1911;53.768;11.474;2022-11-15T10:36:37;9.80;99.90
3792;DHT22;1911;53.768;11.474;2022-11-15T10:39:03;9.90;99.90
3792;DHT22;1911;53.768;11.474;2022-11-15T10:41:32;10.00;99.90
3792;DHT22;1911;53.768;11.474;2022-11-15T10:44:31;9.90;99.90
3792;DHT22;1911;53.768;11.474;2022-11-15T10:49:33;10.00;99.90
3792;DHT22;1911;53.768;11.474;2022-11-15T10:54:33;10.00;99.90
3792;DHT22;1911;53.768;11.474;2022-11-15T10:57:12;10.10;99.90
3792;DHT22;1911;53.768;11.474;2022-11-15T10:59:44;10.20;99.90
3792;DHT22;1911;53.768;11.474;2022-11-15T11:05:01;10.30;99.90
3792;DHT22;1911;53.768;11.474;2022-11-15T11:07:32;10.30;99.90
3792;DHT22;1911;53.768;11.474;2022-11-15T11:10:17;10.40;99.90
3792;DHT22;1911;53.768;11.474;2022-11-15T11:12:42;10.50;99.90
3792;DHT22;1911;53.768;11.474;2022-11-15T11:15:14;10.60;99.90
3792;DHT22;1911;53.768;11.474;2022-11-15T11:18:07;10.50;99.90
3792;DHT22;1911;53.768;11.474;2022-11-15T11:20:44;10.70;99.90
3792;DHT22;1911;53.768;11.474;2022-11-15T11:28:54;11.00;99.90
3792;DHT22;1911;53.768;11.474;2022-11-15T11:31:43;11.20;99.90
3792;DHT22;1911;53.768;11.474;2022-11-15T11:43:23;11.70;99.90
3792;DHT22;1911;53.768;11.474;2022-11-15T11:48:12;12.30;99.90
3792;DHT22;1911;53.768;11.474;2022-11-15T11:50:39;12.40;99.90
3792;DHT22;1911;53.768;11.474;2022-11-15T11:53:29;12.40;26.00
3792;DHT22;1911;53.768;11.474;2022-11-15T11:56:01;12.30;21.30
3792;DHT22;1911;53.768;11.474;2022-11-15T11:58:34;12.30;18.70
3792;DHT22;1911;53.768;11.474;2022-11-15T12:01:24;12.30;38.80
3792;DHT22;1911;53.768;11.474;2022-11-15T12:03:53;12.30;59.10
3792;DHT22;1911;53.768;11.474;2022-11-15T12:06:35;12.40;99.90
3792;DHT22;1911;53.768;11.474;2022-11-15T12:11:57;12.70;24.40
3792;DHT22;1911;53.768;11.474;2022-11-15T12:16:58;12.80;1.00
3792;DHT22;1911;53.768;11.474;2022-11-15T12:19:24;12.70;1.00
3792;DHT22;1911;53.768;11.474;2022-11-15T12:27:29;12.40;37.30
3792;DHT22;1911;53.768;11.474;2022-11-15T12:30:00;12.20;58.30
3792;DHT22;1911;53.768;11.474;2022-11-15T12:32:34;11.90;99.90
3792;DHT22;1911;53.768;11.474;2022-11-15T12:35:02;12.00;99.90
3792;DHT22;1911;53.768;11.474;2022-11-15T12:37:46;12.00;99.90
3792;DHT22;1911;53.768;11.474;2022-11-15T12:40:39;12.00;99.90
3792;DHT22;1911;53.768;11.474;2022-11-15T12:45:41;12.00;99.90
3792;DHT22;1911;53.768;11.474;2022-11-15T12:53:26;11.60;99.90
3792;DHT22;1911;53.768;11.474;2022-11-15T13:01:09;11.40;99.90
3792;DHT22;1911;53.768;11.474;2022-11-15T13:03:35;11.30;99.90
3792;DHT22;1911;53.768;11.474;2022-11-15T13:14:57;11.20;99.90
3792;DHT22;1911;53.768;11.474;2022-11-15T13:17:26;11.20;99.90
3792;DHT22;1911;53.768;11.474;2022-11-15T13:22:25;11.10;99.90
3792;DHT22;1911;53.768;11.474;2022-11-15T13:27:53;11.20;99.90
3792;DHT22;1911;53.768;11.474;2022-11-15T13:30:25;11.20;99.90
3792;DHT22;1911;53.768;11.474;2022-11-15T13:32:52;11.10;99.90
3792;DHT22;1911;53.768;11.474;2022-11-15T13:35:23;11.10;99.90
3792;DHT22;1911;53.768;11.474;2022-11-15T13:37:50;11.00;99.90
3792;DHT22;1911;53.768;11.474;2022-11-15T13:40:26;11.00;99.90
3792;DHT22;1911;53.768;11.474;2022-11-15T13:42:53;11.00;99.90
3792;DHT22;1911;53.768;11.474;2022-11-15T13:45:19;11.00;99.90
3792;DHT22;1911;53.768;11.474;2022-11-15T13:47:54;11.00;99.90
3792;DHT22;1911;53.768;11.474;2022-11-15T13:50:25;11.00;99.90
3792;DHT22;1911;53.768;11.474;2022-11-15T13:52:52;11.00;99.90
3792;DHT22;1911;53.768;11.474;2022-11-15T13:55:21;11.00;99.90
3792;DHT22;1911;53.768;11.474;2022-11-15T13:57:54;10.90;99.90
3792;DHT22;1911;53.768;11.474;2022-11-15T14:00:37;10.90;99.90
3792;DHT22;1911;53.768;11.474;2022-11-15T14:03:19;10.80;99.90
3792;DHT22;1911;53.768;11.474;2022-11-15T14:06:09;10.80;99.90
3792;DHT22;1911;53.768;11.474;2022-11-15T14:08:39;10.70;99.90
3792;DHT22;1911;53.768;11.474;2022-11-15T14:11:06;10.70;99.90
3792;DHT22;1911;53.768;11.474;2022-11-15T14:13:33;10.60;99.90
3792;DHT22;1911;53.768;11.474;2022-11-15T14:18:49;10.60;99.90
3792;DHT22;1911;53.768;11.474;2022-11-15T14:21:16;10.50;99.90
3792;DHT22;1911;53.768;11.474;2022-11-15T14:23:42;10.40;99.90
3792;DHT22;1911;53.768;11.474;2022-11-15T14:28:38;10.30;99.90
3792;DHT22;1911;53.768;11.474;2022-11-15T14:31:11;10.20;99.90
3792;DHT22;1911;53.768;11.474;2022-11-15T14:33:38;10.20;99.90
3792;DHT22;1911;53.768;11.474;2022-11-15T14:36:05;10.10;99.90
3792;DHT22;1911;53.768;11.474;2022-11-15T14:38:32;10.10;99.90
3792;DHT22;1911;53.768;11.474;2022-11-15T14:40:58;10.00;99.90
3792;DHT22;1911;53.768;11.474;2022-11-15T14:43:24;10.00;99.90
3792;DHT22;1911;53.768;11.474;2022-11-15T14:45:55;10.00;99.90
3792;DHT22;1911;53.768;11.474;2022-11-15T14:48:21;9.90;99.90
3792;DHT22;1911;53.768;11.474;2022-11-15T14:50:49;9.90;99.90
3792;DHT22;1911;53.768;11.474;2022-11-15T14:53:16;9.80;99.90
3792;DHT22;1911;53.768;11.474;2022-11-15T14:55:43;9.70;99.90
3792;DHT22;1911;53.768;11.474;2022-11-15T14:58:09;9.70;99.90
3792;DHT22;1911;53.768;11.474;2022-11-15T15:00:37;9.70;99.90
3792;DHT22;1911;53.768;11.474;2022-11-15T15:03:05;9.70;99.90
3792;DHT22;1911;53.768;11.474;2022-11-15T15:05:42;9.60;99.90
3792;DHT22;1911;53.768;11.474;2022-11-15T15:08:09;9.50;99.90
3792;DHT22;1911;53.768;11.474;2022-11-15T15:10:36;9.50;99.90
3792;DHT22;1911;53.768;11.474;2022-11-15T15:13:03;9.40;99.90
3792;DHT22;1911;53.768;11.474;2022-11-15T15:15:37;9.40;99.90
3792;DHT22;1911;53.768;11.474;2022-11-15T15:18:04;9.40;99.90
3792;DHT22;1911;53.768;11.474;2022-11-15T15:20:33;9.30;99.90
3792;DHT22;1911;53.768;11.474;2022-11-15T15:22:59;9.30;99.90
3792;DHT22;1911;53.768;11.474;2022-11-15T15:25:32;9.20;99.90
3792;DHT22;1911;53.768;11.474;2022-11-15T15:27:58;9.20;99.90
3792;DHT22;1911;53.768;11.474;2022-11-15T15:30:25;9.20;99.90
3792;DHT22;1911;53.768;11.474;2022-11-15T15:32:51;9.10;99.90
3792;DHT22;1911;53.768;11.474;2022-11-15T15:35:17;9.10;99.90
3792;DHT22;1911;53.768;11.474;2022-11-15T15:37:44;9.00;99.90
3792;DHT22;1911;53.768;11.474;2022-11-15T15:40:19;9.00;99.90
3792;DHT22;1911;53.768;11.474;2022-11-15T15:42:46;8.90;99.90
3792;DHT22;1911;53.768;11.474;2022-11-15T15:45:14;8.90;99.90
3792;DHT22;1911;53.768;11.474;2022-11-15T15:47:41;8.90;99.90
3792;DHT22;1911;53.768;11.474;2022-11-15T15:50:27;8.80;99.90
3792;DHT22;1911;53.768;11.474;2022-11-15T15:52:55;8.80;99.90
3792;DHT22;1911;53.768;11.474;2022-11-15T15:55:22;8.70;99.90
3792;DHT22;1911;53.768;11.474;2022-11-15T15:57:48;8.70;99.90
3792;DHT22;1911;53.768;11.474;2022-11-15T16:00:15;8.70;99.90
3792;DHT22;1911;53.768;11.474;2022-11-15T16:02:41;8.70;99.90
3792;DHT22;1911;53.768;11.474;2022-11-15T16:05:07;8.70;99.90
3792;DHT22;1911;53.768;11.474;2022-11-15T16:07:33;8.60;99.90
3792;DHT22;1911;53.768;11.474;2022-11-15T16:09:59;8.60;99.90
3792;DHT22;1911;53.768;11.474;2022-11-15T16:12:31;8.50;99.90
3792;DHT22;1911;53.768;11.474;2022-11-15T16:14:57;8.50;99.90
3792;DHT22;1911;53.768;11.474;2022-11-15T16:17:29;8.50;99.90
3792;DHT22;1911;53.768;11.474;2022-11-15T16:19:55;8.40;99.90
3792;DHT22;1911;53.768;11.474;2022-11-15T16:22:21;8.40;99.90
3792;DHT22;1911;53.768;11.474;2022-11-15T16:24:47;8.40;99.90
3792;DHT22;1911;53.768;11.474;2022-11-15T16:27:19;8.30;99.90
3792;DHT22;1911;53.768;11.474;2022-11-15T16:29:45;8.30;99.90
3792;DHT22;1911;53.768;11.474;2022-11-15T16:32:13;8.30;99.90
3792;DHT22;1911;53.768;11.474;2022-11-15T16:34:39;8.20;99.90
3792;DHT22;1911;53.768;11.474;2022-11-15T16:37:05;8.20;99.90
3792;DHT22;1911;53.768;11.474;2022-11-15T16:39:31;8.20;99.90
3792;DHT22;1911;53.768;11.474;2022-11-15T16:41:57;8.20;99.90
3792;DHT22;1911;53.768;11.474;2022-11-15T16:44:24;8.20;99.90
3792;DHT22;1911;53.768;11.474;2022-11-15T16:46:50;8.10;99.90
3792;DHT22;1911;53.768;11.474;2022-11-15T16:49:21;8.10;99.90
3792;DHT22;1911;53.768;11.474;2022-11-15T16:51:50;8.10;99.90
3792;DHT22;1911;53.768;11.474;2022-11-15T16:54:15;8.00;99.90
3792;DHT22;1911;53.768;11.474;2022-11-15T16:56:41;8.00;99.90
3792;DHT22;1911;53.768;11.474;2022-11-15T16:59:10;8.00;99.90
3792;DHT22;1911;53.768;11.474;2022-11-15T17:01:44;7.90;99.90
3792;DHT22;1911;53.768;11.474;2022-11-15T17:04:16;7.90;99.90
3792;DHT22;1911;53.768;11.474;2022-11-15T17:06:44;7.90;99.90
3792;DHT22;1911;53.768;11.474;2022-11-15T17:09:17;7.80;99.90
3792;DHT22;1911;53.768;11.474;2022-11-15T17:11:44;7.80;99.90
3792;DHT22;1911;53.768;11.474;2022-11-15T17:14:11;7.70;99.90
3792;DHT22;1911;53.768;11.474;2022-11-15T17:16:37;7.70;99.90
3792;DHT22;1911;53.768;11.474;2022-11-15T17:19:13;7.70;99.90
3792;DHT22;1911;53.768;11.474;2022-11-15T17:21:39;7.60;99.90
3792;DHT22;1911;53.768;11.474;2022-11-15T17:24:05;7.70;99.90
3792;DHT22;1911;53.768;11.474;2022-11-15T17:26:30;7.60;99.90
3792;DHT22;1911;53.768;11.474;2022-11-15T17:28:56;7.60;99.90
3792;DHT22;1911;53.768;11.474;2022-11-15T17:31:22;7.60;99.90
3792;DHT22;1911;53.768;11.474;2022-11-15T17:33:47;7.60;99.90
3792;DHT22;1911;53.768;11.474;2022-11-15T17:36:13;7.60;99.90
3792;DHT22;1911;53.768;11.474;2022-11-15T17:38:41;7.60;99.90
3792;DHT22;1911;53.768;11.474;2022-11-15T17:41:13;7.60;99.90
3792;DHT22;1911;53.768;11.474;2022-11-15T17:43:39;7.60;99.90
3792;DHT22;1911;53.768;11.474;2022-11-15T17:46:16;7.60;99.90
3792;DHT22;1911;53.768;11.474;2022-11-15T17:48:42;7.60;99.90
3792;DHT22;1911;53.768;11.474;2022-11-15T17:51:10;7.60;99.90
3792;DHT22;1911;53.768;11.474;2022-11-15T17:53:40;7.60;99.90
3792;DHT22;1911;53.768;11.474;2022-11-15T17:56:09;7.70;99.90
3792;DHT22;1911;53.768;11.474;2022-11-15T17:58:35;7.70;99.90
3792;DHT22;1911;53.768;11.474;2022-11-15T18:03:40;7.70;99.90
3792;DHT22;1911;53.768;11.474;2022-11-15T18:06:08;7.70;99.90